Bienvenidos al Sitio de AASANA BOLIVIA
Aeropuerto: Internaciónal El Alto
HORA UTC 12:00
05°C
Humedad: 86%

Fecha: 23/02/2018


Sin Fenómeno
ESTACIÓN:SLLP
LATITUD|LONGITUD:16-08S|68-10W
HORA UTC:12:00
DESCRIPCIÓN: SLLP 231200Z VRB02KT 6000 FEW006 SCT013 05/03 Q1037 A3063 627.6 P4352 VIS RED/SC BJOS/E/SE AC/CI HR86 NOSIG=
Regional La Paz
EstaciónAerodromoSit. GeograficaDescripción
SLAPApolo14-44S-68-24W
SLCNCharaña17-35S-69-25W
SLUYUyuni20-27S-62-52W SLUY 231200Z 19004KT 9999 FEW015 FEW018CB BKN070 09/05 Q1034 A3055 658.6 CB/SH W CI HR74= 
SLSBSan Borja14-51S-66-44W SLSB 231200Z 00000KT 9999 NSC 25/23 Q1012 A2989 HR91 RWY HUM OPR=
SLLPInternaciónal El Alto16-08S-68-10W SLLP 231200Z VRB02KT 6000 FEW006 SCT013 05/03 Q1037 A3063 627.6 P4352 VIS RED/SC BJOS/E/SE AC/CI HR86 NOSIG=
SLRYReyes14-18S-67-21W SLRY 231200Z 00000KT 9999 FEW080 23/22 Q1011 A2988 HR95 RWY WET OPR C210=
SLRQRurrenabaque14-25S-67-29W SLRQ 231200Z 00000KT 9999 FEW080 24/23 Q1011 A2986 HR91=
SLOROruro17-57S-67-04W SLOR 231200Z 07009KT 9999 FEW012 SCT070 07/02 Q1035 A3056 655.9 HR67=
Regional Cochabamba
EstaciónAerodromoSit. GeograficaDescripción
SLPOPotosí19-32S-65-43W SLPO 231200Z 00000KT 9999 BKN018 06/05 Q1038 A3065 HR89 CI=
SLAGMonteagudo19-49S-63-58W SLAG 231200Z 00000KT 9999 SCT017 BKN070 19/18 Q1020 A3015 HR94=
SLVMVillamontes21-15S-63-24W SLVM 231200Z 00000KT 9999 NSC 21/18 Q1016 A3000 HR82=
SLBJBermejo22-46S-64-18W SLBJ 231200Z 01003KT 9999 SCT070 21/20 Q1016 A3002 HR95= 
SLHIChimore16-58S-65-09W SLHI 221900Z 00000KT 9999 FEW017 SCT070 BKN200 30/23 Q1012 A2991 985.5 HR69= 
SLALAlcantari19-14S-65-09W SLAL 231200Z 01006KT 9999 FEW010 10/07 Q1030 A3043 HR85=
SLCBCochabamba17-25S-66-10W SLCB 231200Z 00000KT 9000 FEW030 SCT080 15/09 Q1027 A3035 753.5 HR67 FU CI NOSIG=
SLTJTarija21-33S-64-42W SLTJ 231200Z 00000KT 9999 FEW025 BKN070 17/14 Q1022 A3020 HR85=
SLYAYacuiba21-57S-63-39W SLYA 231200Z 00000KT 9999 NSC 22/19 Q1016 A3003 HR84=
Regional Santa Cruz
EstaciónAerodromoSit. GeograficaDescripción
SLETEl Trompillo17-48S-63-10W SLET 231200Z 16010KT 9999 NSC 24/17 Q1014 A2997 HR66 CI NOSIG=
SLASAscención de Guarayos15-55S-63-09W SLAS 231200Z 18006KT 9999 SCT070 23/21 Q1014 A2994 HR90 RWY NML =
SLSISan Ignacio de Velasco16-23S-60-57W SLSI 231200Z 00000KT 9999 SCT070 22/21 Q1014 A2994 HR94 RWY NML =
SLCACamiri20-00S-63-31W SLCA 231200Z 00000KT 9999 FEW003 17/16 Q1020 A3012 HR95 RWY HUM OPR= 
SLPSPuerto Suárez18-58S-57-49W SLPS 231200Z 23005KT 9999 NSC 26/21 Q1011 A2986 HR77 CI=
SLVRInternaciónal Viru Viru17-38S-63-08W SLVR 231200Z 18009KT 9999 NSC 25/18 Q1013 A2994 HR66 CI NOSIG=
SLJVSan Javier16-16S-62-28W SLJV 231200Z 00000KT 9999 NSC 21/19 Q1012 A2988 HR90 CI RWY NML =
SLCPConcepción16-08S-62-01W SLCP 231200Z 18008KT 9999 SCT070 22/21 Q1015 A2997 HR92 RWY NML =
SLTISan Matías16-20S-58-24W SLTI 231200Z 00000KT 9999 NSC 26/23 Q1015 A2997 HR85 CI RWY NML =
SLJESan José de Chiquitos17-49S-60-44W SLJE 231200Z 00000KT 9999 FEW070 BKN200 25/17 Q1016 A3000 HR64 RWY WET INOP=
SLVGValle Grande18-28S-64-05W SLVG 231200Z 17003KT 9999 NSC 14/11 Q1026 A3030 HR79 RWY NML=
SLRBRoboré18-19S-59-45W SLRB 231200Z 00000KT 9999 NSC 21/20 Q1016 A3000 HR90 RWY NML=
Regional Beni
EstaciónAerodromoSit. GeograficaDescripción
SLGMGuayaramerín10-53S-65-23W SLGM 231200Z 00000KT 5000 VCSH BKN004 OVC070 23/22 Q1012 A2991 HR95 SH E/SE=
SLRIRiberalta11-00S-66-04W SLRI 231200Z 00000KT 2000 BR BKN004 OVC070 22/21 Q1012 A2991 HR98=
SLJOSan Joaquin13-03S-64-39W SLJO 231200Z 16004KT 8000 VCSH BKN012 FEW023CB OVC070 23/23 Q1010 A2985 HR98 CB/SH NE/E/SE RWY OPR C210=
SLBUBaures13-39S-63-42W SLBU 231200Z 00000KT 9999 FEW010 BKN080 24/23 Q1011 A2987 HR95 RWY OPR C212=
SLSASanta Ana de Yacuma13-45S-65-26W SLSA 231200Z 19006KT 9999 FEW020 FEW023CB BKN070 26/24 Q1011 A2987 HR89 CB E=
SLSRSanta Rosa14-04S-66-47W SLSR 231200Z 00000KT 9999 FEW080 25/22 Q1012 A2989 HR88 RWY OPR/C210=
SLSMSan Ignacio de Moxos14-57S-65-38W SLSM 231200Z 00000KT 9999 NSC 24/23 Q1011 A2988 HR91 RWY NML= 
SLCOCobija11-02S-68-47W SLCO 231200Z 00000KT 9999 BKN005 BKN080 23/23 Q1012 A2990 985.1 HR96=
SLTRTrinidad14-49S-64-54W SLTR 231200Z 19003KT 9999 NSC 25/23 Q1012 A2989 993.8 HR88 AC/ CI NOSIG=
SLRASan Ramón13-15S-64-36W SLRA 231200Z 00000KT 8000 VCSH FEW010 SCT015 FEW023CB OVC070 24/23 Q1009 A2982 HR97 CB/SH NE/E/SW RWY OPR C206=
SLMGSan Magdalena13-15S-64-36W SLMG 231200Z 00000KT 8000 VCSH FEW012 FEW023CB OVC070 23/22 Q1011 A2986 HR96 CB N/NE/W SH N/NE RWY HUM OPR=